Time;durP1;ratioP1;P1;durP2;ratioP2;P2;SDS_P1;SDS_P2;PMS_P1;PMS_P2;Temp;Humidity;BMP_temperature;BMP_pressure;BME280_temperature;BME280_humidity;BME280_pressure;Samples;Min_cycle;Max_cycle;Signal;HPM_P1;HPM_P2
2024/04/15 00:01:30;;;;;;;0.93;0.73;;;11.20;99.90;;;;;;4438235;32;20575;-63
2024/04/15 00:03:55;;;;;;;0.85;0.60;;;11.20;99.90;;;;;;4440146;32;20085;-62
2024/04/15 00:06:21;;;;;;;0.30;0.30;;;11.10;99.90;;;;;;4440185;32;20073;-62
2024/04/15 00:08:46;;;;;;;3.72;0.55;;;11.10;99.90;;;;;;4438606;32;20505;-62
2024/04/15 00:11:12;;;;;;;0.60;0.60;;;11.00;99.90;;;;;;4436696;32;20085;-63
2024/04/15 00:13:38;;;;;;;0.40;0.40;;;11.00;99.90;;;;;;4437822;32;20501;-63
2024/04/15 00:16:08;;;;;;;0.30;0.30;;;11.10;99.90;;;;;;4439471;32;20077;-63
2024/04/15 00:18:34;;;;;;;0.60;0.60;;;11.10;99.90;;;;;;4440735;32;20061;-63
2024/04/15 00:21:00;;;;;;;0.28;0.28;;;11.10;99.90;;;;;;4438570;32;20533;-64
2024/04/15 00:23:26;;;;;;;0.30;0.30;;;11.20;99.90;;;;;;4416185;32;20136;-64
2024/04/15 00:25:55;;;;;;;1.85;1.27;;;11.10;99.90;;;;;;4440062;32;20616;-63
2024/04/15 00:28:21;;;;;;;3.20;0.60;;;11.10;99.90;;;;;;4431268;32;20454;-63
2024/04/15 00:30:48;;;;;;;12.45;2.50;;;11.10;99.90;;;;;;4439480;32;20069;-62
2024/04/15 00:33:14;;;;;;;6.10;1.80;;;11.00;99.90;;;;;;4438013;32;20073;-62
2024/04/15 00:35:43;;;;;;;0.25;0.25;;;11.10;99.90;;;;;;4439131;32;20065;-62
2024/04/15 00:38:08;;;;;;;0.52;0.52;;;11.10;99.90;;;;;;4430129;32;20081;-62
2024/04/15 00:40:34;;;;;;;0.25;0.25;;;11.00;99.90;;;;;;4439668;32;20303;-62
2024/04/15 00:43:00;;;;;;;0.30;0.30;;;11.00;99.90;;;;;;4438723;32;20076;-62
2024/04/15 00:45:30;;;;;;;0.65;0.65;;;11.10;99.90;;;;;;4428529;32;20093;-62
2024/04/15 00:47:58;;;;;;;0.30;0.30;;;11.10;99.90;;;;;;4429149;32;20093;-62
2024/04/15 00:50:25;;;;;;;0.40;0.40;;;11.10;99.90;;;;;;4438460;32;20069;-62
2024/04/15 00:52:53;;;;;;;0.30;0.30;;;11.00;99.90;;;;;;4439023;32;20081;-62
2024/04/15 00:55:19;;;;;;;0.20;0.20;;;11.10;99.90;;;;;;4438193;32;20212;-62
2024/04/15 00:57:45;;;;;;;0.20;0.20;;;11.00;99.90;;;;;;4438395;32;20088;-62
2024/04/15 01:00:15;;;;;;;0.45;0.40;;;10.90;99.90;;;;;;4435926;32;20501;-62
2024/04/15 01:02:43;;;;;;;0.28;0.28;;;11.00;99.90;;;;;;4438843;32;20616;-62
2024/04/15 01:05:09;;;;;;;1.90;0.62;;;11.00;99.90;;;;;;4429205;32;20073;-62
2024/04/15 01:07:36;;;;;;;0.30;0.30;;;10.90;99.90;;;;;;4428923;32;20537;-62
2024/04/15 01:10:03;;;;;;;3.47;0.75;;;10.90;99.90;;;;;;4429422;32;20093;-62
2024/04/15 01:12:29;;;;;;;0.60;0.60;;;10.90;99.90;;;;;;4428356;32;20649;-62
2024/04/15 01:14:55;;;;;;;0.28;0.28;;;10.90;99.90;;;;;;4439243;32;20123;-62
2024/04/15 01:17:20;;;;;;;0.52;0.52;;;10.90;99.90;;;;;;4429709;32;20138;-62
2024/04/15 01:19:46;;;;;;;1.05;0.75;;;10.90;99.90;;;;;;4437717;32;20073;-62
2024/04/15 01:22:19;;;;;;;0.40;0.40;;;10.90;99.90;;;;;;4438079;32;20060;-62
2024/04/15 01:24:48;;;;;;;22.48;0.37;;;10.90;99.90;;;;;;4431369;32;20544;-62
2024/04/15 01:27:14;;;;;;;0.25;0.25;;;10.90;99.90;;;;;;4437119;32;20497;-62
2024/04/15 01:29:39;;;;;;;0.30;0.30;;;10.80;99.90;;;;;;4436017;32;20088;-62
2024/04/15 01:32:05;;;;;;;2.25;0.73;;;10.80;99.90;;;;;;4438830;32;20080;-64
2024/04/15 01:34:31;;;;;;;0.50;0.50;;;10.90;99.90;;;;;;4439497;32;20532;-64
2024/04/15 01:36:56;;;;;;;0.88;0.88;;;11.00;99.90;;;;;;4438403;32;20089;-63
2024/04/15 01:39:22;;;;;;;0.25;0.25;;;10.90;99.90;;;;;;4439555;32;20076;-64
2024/04/15 01:41:48;;;;;;;0.30;0.30;;;10.80;99.90;;;;;;4438554;32;20073;-63
2024/04/15 01:44:13;;;;;;;1.55;0.98;;;10.70;99.90;;;;;;4438938;32;20080;-63
2024/04/15 01:46:39;;;;;;;0.40;0.40;;;10.60;99.90;;;;;;4438072;32;20130;-63
2024/04/15 01:49:04;;;;;;;0.30;0.30;;;10.70;99.90;;;;;;4437088;32;20064;-62
2024/04/15 01:51:30;;;;;;;0.40;0.40;;;10.70;99.90;;;;;;4438724;32;20056;-62
2024/04/15 01:53:56;;;;;;;1.20;1.10;;;10.70;99.90;;;;;;4438203;32;20113;-62
2024/04/15 01:56:21;;;;;;;2.20;1.25;;;10.60;99.90;;;;;;4427893;32;20094;-62
2024/04/15 01:58:47;;;;;;;0.28;0.28;;;10.60;99.90;;;;;;4436965;32;20409;-62
2024/04/15 02:01:12;;;;;;;0.35;0.35;;;10.70;99.90;;;;;;4437920;32;20422;-62
2024/04/15 02:03:38;;;;;;;8.05;0.80;;;10.70;99.90;;;;;;4438262;32;20074;-62
2024/04/15 02:06:04;;;;;;;0.25;0.25;;;10.60;99.90;;;;;;4438229;32;20406;-62
2024/04/15 02:08:30;;;;;;;1.77;0.80;;;10.50;99.90;;;;;;4437203;32;20081;-62
2024/04/15 02:10:55;;;;;;;0.98;0.40;;;10.50;99.90;;;;;;4440143;32;20081;-62
2024/04/15 02:13:21;;;;;;;0.43;0.43;;;10.60;99.90;;;;;;4439456;32;20101;-62
2024/04/15 02:15:47;;;;;;;1.85;0.73;;;10.50;99.90;;;;;;4437596;32;21288;-62
2024/04/15 02:18:12;;;;;;;0.45;0.45;;;10.50;99.90;;;;;;4436612;32;20064;-62
2024/04/15 02:20:38;;;;;;;0.20;0.20;;;10.50;99.90;;;;;;4438744;32;20402;-62
2024/04/15 02:23:03;;;;;;;0.57;0.57;;;10.50;99.90;;;;;;4442604;32;20061;-62
2024/04/15 02:25:29;;;;;;;1.60;0.68;;;10.50;99.90;;;;;;4439539;32;20111;-62
2024/04/15 02:27:55;;;;;;;0.57;0.57;;;10.60;99.90;;;;;;4436073;32;20580;-62
2024/04/15 02:30:20;;;;;;;0.40;0.40;;;10.50;99.90;;;;;;4437561;32;20132;-62
2024/04/15 02:32:46;;;;;;;0.40;0.40;;;10.60;99.90;;;;;;4441203;32;20825;-62
2024/04/15 02:35:11;;;;;;;0.37;0.37;;;10.60;99.90;;;;;;4439704;32;20680;-62
2024/04/15 02:37:37;;;;;;;0.55;0.40;;;10.60;99.90;;;;;;4440498;32;20081;-62
2024/04/15 02:40:03;;;;;;;3.20;1.08;;;10.60;99.90;;;;;;4438877;32;20136;-62
2024/04/15 02:42:28;;;;;;;0.20;0.20;;;10.60;99.90;;;;;;4439331;32;20074;-62
2024/04/15 02:44:54;;;;;;;0.40;0.40;;;10.60;99.90;;;;;;4439151;32;20085;-62
2024/04/15 02:47:19;;;;;;;0.50;0.50;;;10.70;99.90;;;;;;4438480;32;20081;-62
2024/04/15 02:49:45;;;;;;;0.50;0.50;;;10.70;99.90;;;;;;4415148;32;20139;-62
2024/04/15 02:52:11;;;;;;;0.30;0.30;;;10.60;99.90;;;;;;4438345;32;20077;-64
2024/04/15 02:54:36;;;;;;;0.50;0.50;;;10.70;99.90;;;;;;4429238;32;20540;-63
2024/04/15 02:57:02;;;;;;;0.20;0.20;;;10.60;99.90;;;;;;4432282;32;20092;-63
2024/04/15 02:59:27;;;;;;;0.30;0.30;;;10.60;99.90;;;;;;4428405;32;20126;-63
2024/04/15 03:01:53;;;;;;;0.40;0.40;;;10.50;99.90;;;;;;4432932;32;20076;-62
2024/04/15 03:04:18;;;;;;;0.50;0.50;;;10.40;99.90;;;;;;4428209;32;20116;-62
2024/04/15 03:06:44;;;;;;;1.00;0.60;;;10.30;99.90;;;;;;4429463;32;20595;-62
2024/04/15 03:09:10;;;;;;;2.37;0.75;;;10.40;99.90;;;;;;4431646;32;20454;-62
2024/04/15 03:11:36;;;;;;;0.40;0.40;;;10.50;99.90;;;;;;4430600;32;20548;-64
2024/04/15 03:14:02;;;;;;;0.30;0.30;;;10.50;99.90;;;;;;4430077;32;20061;-63
2024/04/15 03:16:27;;;;;;;0.30;0.30;;;10.50;99.90;;;;;;4428027;32;20097;-63
2024/04/15 03:18:53;;;;;;;0.37;0.37;;;10.40;99.90;;;;;;4416960;32;20132;-64
2024/04/15 03:21:18;;;;;;;0.20;0.20;;;10.40;99.90;;;;;;4423895;32;20081;-64
2024/04/15 03:23:45;;;;;;;0.22;0.22;;;10.30;99.90;;;;;;4425079;32;20138;-63
2024/04/15 03:26:11;;;;;;;0.37;0.37;;;10.40;99.90;;;;;;4432318;32;20124;-64
2024/04/15 03:28:37;;;;;;;0.20;0.20;;;10.30;99.90;;;;;;4435054;32;20073;-63
2024/04/15 03:31:02;;;;;;;0.30;0.30;;;10.40;99.90;;;;;;4426951;32;20514;-63
2024/04/15 03:33:28;;;;;;;0.65;0.65;;;10.30;99.90;;;;;;4433823;32;20181;-64
2024/04/15 03:35:55;;;;;;;0.98;0.88;;;10.30;99.90;;;;;;4432884;32;20484;-63
2024/04/15 03:38:20;;;;;;;0.30;0.30;;;10.30;99.90;;;;;;4430459;32;20120;-63
2024/04/15 03:40:46;;;;;;;0.30;0.30;;;10.40;99.90;;;;;;4430806;32;20132;-64
2024/04/15 03:43:11;;;;;;;0.40;0.40;;;10.30;99.90;;;;;;4430656;32;20625;-64
2024/04/15 03:45:37;;;;;;;0.68;0.68;;;10.20;99.90;;;;;;4431138;32;20065;-64
2024/04/15 03:48:03;;;;;;;0.30;0.30;;;10.20;99.90;;;;;;4432258;32;20073;-64
2024/04/15 03:50:28;;;;;;;0.25;0.25;;;10.10;99.90;;;;;;4428951;32;20520;-63
2024/04/15 03:52:54;;;;;;;0.30;0.30;;;10.10;99.90;;;;;;4432471;32;20537;-64
2024/04/15 03:55:20;;;;;;;1.15;0.95;;;10.00;99.90;;;;;;4415488;32;20121;-63
2024/04/15 03:57:46;;;;;;;3.35;0.80;;;10.00;99.90;;;;;;4439922;32;20145;-63
2024/04/15 04:00:13;;;;;;;0.82;0.82;;;10.00;99.90;;;;;;4430009;32;20463;-63
2024/04/15 04:02:39;;;;;;;0.50;0.50;;;9.90;99.90;;;;;;4428965;32;20512;-63
2024/04/15 04:05:06;;;;;;;0.37;0.37;;;9.90;99.90;;;;;;4439080;32;20090;-63
2024/04/15 04:07:32;;;;;;;0.40;0.40;;;9.80;99.90;;;;;;4440209;32;20097;-63
2024/04/15 04:09:57;;;;;;;0.70;0.70;;;9.90;99.90;;;;;;4437151;32;20545;-63
2024/04/15 04:12:23;;;;;;;0.30;0.30;;;9.90;99.90;;;;;;4436318;32;20061;-64
2024/04/15 04:14:49;;;;;;;0.40;0.40;;;10.00;99.90;;;;;;4437996;32;20122;-64
2024/04/15 04:17:14;;;;;;;0.30;0.30;;;10.10;99.90;;;;;;4432269;32;20074;-63
2024/04/15 04:19:40;;;;;;;0.30;0.30;;;10.20;99.90;;;;;;4439878;32;20732;-63
2024/04/15 04:22:05;;;;;;;1.35;0.70;;;10.10;99.90;;;;;;4429952;32;20082;-63
2024/04/15 04:24:31;;;;;;;0.22;0.22;;;10.00;99.90;;;;;;4438253;32;20487;-63
2024/04/15 04:26:57;;;;;;;0.32;0.32;;;10.00;99.90;;;;;;4438155;32;20097;-63
2024/04/15 04:29:22;;;;;;;1.08;0.93;;;10.10;99.90;;;;;;4438005;32;20073;-63
2024/04/15 04:31:48;;;;;;;0.30;0.30;;;10.00;99.90;;;;;;4438032;32;20161;-63
2024/04/15 04:34:14;;;;;;;0.68;0.60;;;10.00;99.90;;;;;;4440177;32;20069;-63
2024/04/15 04:36:39;;;;;;;1.45;1.10;;;10.00;99.90;;;;;;4440119;32;20086;-63
2024/04/15 04:39:05;;;;;;;0.30;0.30;;;9.90;99.90;;;;;;4440105;32;21446;-62
2024/04/15 04:41:32;;;;;;;0.30;0.30;;;10.10;99.90;;;;;;4437030;32;20761;-63
2024/04/15 04:43:57;;;;;;;3.30;0.65;;;10.00;99.90;;;;;;4430992;32;20093;-63
2024/04/15 04:46:23;;;;;;;0.40;0.40;;;10.10;99.90;;;;;;4432062;32;20075;-63
2024/04/15 04:48:50;;;;;;;0.45;0.45;;;10.00;99.90;;;;;;4437071;32;20077;-63
2024/04/15 04:51:16;;;;;;;0.30;0.30;;;9.90;99.90;;;;;;4425923;32;20105;-63
2024/04/15 04:53:41;;;;;;;0.20;0.20;;;10.00;99.90;;;;;;4432637;32;20076;-63
2024/04/15 04:56:09;;;;;;;0.75;0.75;;;9.90;99.90;;;;;;4425394;32;20511;-63
2024/04/15 04:58:35;;;;;;;0.60;0.60;;;9.70;99.90;;;;;;4429719;32;20081;-63
2024/04/15 05:01:20;;;;;;;1.02;0.70;;;9.70;99.90;;;;;;4427027;32;20077;-63
2024/04/15 05:03:47;;;;;;;0.40;0.40;;;9.60;99.90;;;;;;4425050;32;20080;-63
2024/04/15 05:06:15;;;;;;;1.35;0.50;;;9.50;99.90;;;;;;4409237;32;20066;-63
2024/04/15 05:08:41;;;;;;;0.30;0.30;;;9.50;99.90;;;;;;4419106;32;20085;-63
2024/04/15 05:11:07;;;;;;;0.25;0.25;;;9.60;99.90;;;;;;4424511;32;20103;-63
2024/04/15 05:13:33;;;;;;;0.40;0.40;;;9.60;99.90;;;;;;4412941;32;20100;-64
2024/04/15 05:16:04;;;;;;;1.17;1.08;;;9.50;99.90;;;;;;4417033;32;20134;-63
2024/04/15 05:18:29;;;;;;;3.00;0.57;;;9.50;99.90;;;;;;4426752;32;20073;-63
2024/04/15 05:20:55;;;;;;;0.30;0.30;;;9.70;99.90;;;;;;4409447;32;20529;-63
2024/04/15 05:23:21;;;;;;;0.30;0.30;;;9.70;99.90;;;;;;4413659;32;20101;-63
2024/04/15 05:25:46;;;;;;;0.20;0.20;;;9.70;99.90;;;;;;4415192;32;20223;-63
2024/04/15 05:28:12;;;;;;;0.40;0.40;;;9.80;99.90;;;;;;4406844;32;20081;-63
2024/04/15 05:30:37;;;;;;;0.30;0.30;;;10.00;99.90;;;;;;4420121;32;20545;-62
2024/04/15 05:33:03;;;;;;;0.20;0.20;;;10.10;99.90;;;;;;4426926;32;20128;-63
2024/04/15 05:35:29;;;;;;;0.75;0.62;;;10.10;99.90;;;;;;4423723;32;20090;-63
2024/04/15 05:37:54;;;;;;;6.03;0.40;;;10.20;99.90;;;;;;4414616;32;20561;-62
2024/04/15 05:40:20;;;;;;;1.08;0.50;;;10.40;99.90;;;;;;4414576;32;20538;-65
2024/04/15 05:42:46;;;;;;;0.45;0.45;;;10.50;99.90;;;;;;4415639;32;20103;-64
2024/04/15 05:45:11;;;;;;;2.83;1.05;;;10.40;99.90;;;;;;4419671;32;20090;-64
2024/04/15 05:47:37;;;;;;;0.40;0.40;;;10.30;99.90;;;;;;4417466;32;20261;-64
2024/04/15 05:50:02;;;;;;;2.62;0.52;;;10.20;99.90;;;;;;4418200;32;20090;-64
2024/04/15 05:52:28;;;;;;;0.65;0.65;;;10.10;99.90;;;;;;4401378;32;21128;-63
2024/04/15 05:54:54;;;;;;;0.25;0.25;;;10.10;99.90;;;;;;4414636;32;20126;-63
2024/04/15 05:57:19;;;;;;;0.30;0.30;;;10.30;99.90;;;;;;4403837;32;20088;-63
2024/04/15 05:59:47;;;;;;;0.30;0.30;;;10.50;99.90;;;;;;4409066;32;20207;-63
2024/04/15 06:02:13;;;;;;;0.30;0.30;;;10.50;99.90;;;;;;4402524;32;20159;-63
2024/04/15 06:04:38;;;;;;;2.25;0.55;;;10.60;99.90;;;;;;4400875;32;20092;-64
2024/04/15 06:07:04;;;;;;;2.17;1.05;;;10.50;99.90;;;;;;4408452;32;20118;-64
2024/04/15 06:09:30;;;;;;;1.80;1.65;;;10.40;99.90;;;;;;4414399;32;20074;-64
2024/04/15 06:11:56;;;;;;;0.40;0.40;;;10.50;99.90;;;;;;4411994;32;20158;-64
2024/04/15 06:14:22;;;;;;;0.10;0.10;;;10.40;99.90;;;;;;4418064;32;20147;-64
2024/04/15 06:16:49;;;;;;;0.47;0.47;;;10.30;99.90;;;;;;4407857;32;20117;-64
2024/04/15 06:19:14;;;;;;;0.20;0.20;;;10.40;99.90;;;;;;4408133;32;20211;-63
2024/04/15 06:21:41;;;;;;;0.20;0.20;;;10.40;99.90;;;;;;4407002;32;20471;-63
2024/04/15 06:24:06;;;;;;;0.45;0.45;;;10.40;99.90;;;;;;4409048;32;20236;-64
2024/04/15 06:26:32;;;;;;;0.20;0.20;;;10.40;99.90;;;;;;4416134;32;20076;-64
2024/04/15 06:28:58;;;;;;;0.20;0.20;;;10.50;99.90;;;;;;4410525;32;20136;-64
2024/04/15 06:31:24;;;;;;;1.25;1.00;;;10.60;99.90;;;;;;4404406;32;20093;-64
2024/04/15 06:33:49;;;;;;;0.30;0.30;;;10.70;99.90;;;;;;4407557;32;20102;-63
2024/04/15 06:36:15;;;;;;;1.85;1.20;;;10.70;99.90;;;;;;4394002;32;20101;-64
2024/04/15 06:38:40;;;;;;;0.50;0.50;;;10.60;99.90;;;;;;4403830;32;20446;-64
2024/04/15 06:41:07;;;;;;;0.40;0.40;;;10.70;99.90;;;;;;4393299;32;20830;-63
2024/04/15 06:43:32;;;;;;;1.37;0.57;;;10.80;99.90;;;;;;4380294;32;21006;-63
2024/04/15 06:45:58;;;;;;;1.55;1.20;;;10.70;99.90;;;;;;4393464;32;20501;-63
2024/04/15 06:48:23;;;;;;;6.22;1.20;;;10.70;99.90;;;;;;4409175;32;20104;-63
2024/04/15 06:50:50;;;;;;;0.30;0.30;;;10.80;99.90;;;;;;4401485;32;20169;-63
2024/04/15 06:53:16;;;;;;;0.30;0.30;;;10.90;99.90;;;;;;4396249;32;20080;-63
2024/04/15 06:55:42;;;;;;;0.30;0.30;;;10.90;99.90;;;;;;4394091;32;20648;-63
2024/04/15 06:58:08;;;;;;;0.30;0.30;;;10.90;99.90;;;;;;4400373;32;20650;-63
2024/04/15 07:00:33;;;;;;;0.50;0.50;;;11.10;99.90;;;;;;4404951;32;20089;-63
2024/04/15 07:02:59;;;;;;;0.37;0.37;;;11.20;99.90;;;;;;4393235;32;20138;-63
2024/04/15 07:05:25;;;;;;;0.88;0.60;;;11.20;99.90;;;;;;4404142;32;21052;-63
2024/04/15 07:07:50;;;;;;;0.50;0.50;;;11.40;99.90;;;;;;4401308;32;20084;-63
2024/04/15 07:10:16;;;;;;;0.50;0.50;;;11.40;99.90;;;;;;4397526;32;20109;-64
2024/04/15 07:12:41;;;;;;;1.12;0.68;;;11.40;99.90;;;;;;4388782;32;20116;-64
2024/04/15 07:15:07;;;;;;;0.40;0.40;;;11.50;99.90;;;;;;4397060;32;20105;-64
2024/04/15 07:17:33;;;;;;;0.45;0.45;;;11.40;99.90;;;;;;4399514;32;20487;-65
2024/04/15 07:19:58;;;;;;;0.50;0.50;;;11.40;99.90;;;;;;4404018;32;20753;-65
2024/04/15 07:22:24;;;;;;;0.55;0.55;;;11.40;99.90;;;;;;4403391;32;21491;-64
2024/04/15 07:24:50;;;;;;;0.40;0.40;;;11.50;99.90;;;;;;4401214;32;20490;-65
2024/04/15 07:27:15;;;;;;;0.82;0.82;;;11.50;99.90;;;;;;4400360;32;20335;-65
2024/04/15 07:29:41;;;;;;;0.40;0.40;;;11.60;99.90;;;;;;4398933;32;20077;-64
2024/04/15 07:32:07;;;;;;;0.22;0.22;;;11.50;99.90;;;;;;4403581;32;20160;-65
2024/04/15 07:34:33;;;;;;;0.60;0.60;;;11.50;99.90;;;;;;4408259;32;20144;-64
2024/04/15 07:36:58;;;;;;;0.30;0.30;;;11.60;99.90;;;;;;4409090;32;20100;-65
2024/04/15 07:39:24;;;;;;;0.20;0.20;;;11.70;99.90;;;;;;4407352;32;20148;-65
2024/04/15 07:41:49;;;;;;;1.80;0.75;;;11.80;99.90;;;;;;4420220;32;20106;-64
2024/04/15 07:44:15;;;;;;;0.35;0.35;;;11.90;99.90;;;;;;4414186;32;20101;-65
2024/04/15 07:46:43;;;;;;;0.40;0.40;;;11.90;99.90;;;;;;4408099;32;20084;-65
2024/04/15 07:49:09;;;;;;;2.58;0.75;;;11.90;99.90;;;;;;4410734;32;21261;-65
2024/04/15 07:51:35;;;;;;;3.55;0.40;;;11.90;99.90;;;;;;4397636;32;20084;-64
2024/04/15 07:54:01;;;;;;;0.40;0.40;;;11.80;99.90;;;;;;4400054;32;20092;-63
2024/04/15 07:56:27;;;;;;;5.18;1.30;;;11.70;99.90;;;;;;4409494;32;20961;-64
2024/04/15 07:58:53;;;;;;;0.40;0.40;;;11.70;99.90;;;;;;4407035;32;20101;-64
2024/04/15 08:01:19;;;;;;;0.30;0.30;;;11.80;99.90;;;;;;4401260;32;20081;-64
2024/04/15 08:03:44;;;;;;;0.35;0.35;;;11.80;99.90;;;;;;4397299;32;20224;-64
2024/04/15 08:06:10;;;;;;;0.30;0.30;;;12.00;99.90;;;;;;4399062;32;20077;-63
2024/04/15 08:08:37;;;;;;;1.55;0.47;;;11.90;99.90;;;;;;4401629;32;20104;-63
2024/04/15 08:11:03;;;;;;;0.50;0.50;;;12.00;99.90;;;;;;4406082;32;20112;-64
2024/04/15 08:13:28;;;;;;;4.62;0.50;;;12.10;99.90;;;;;;4399883;32;20142;-64
2024/04/15 08:15:54;;;;;;;0.40;0.40;;;12.10;99.90;;;;;;4396921;32;20090;-64
2024/04/15 08:18:19;;;;;;;0.45;0.45;;;12.10;99.90;;;;;;4399020;32;20105;-64
2024/04/15 08:20:53;;;;;;;1.95;1.40;;;12.20;99.90;;;;;;4407928;32;20711;-64
2024/04/15 08:23:19;;;;;;;11.25;0.70;;;12.20;99.90;;;;;;4405874;32;20188;-65
2024/04/15 08:25:52;;;;;;;0.20;0.20;;;12.20;99.90;;;;;;4411086;32;20073;-65
2024/04/15 08:28:18;;;;;;;0.30;0.30;;;12.40;99.90;;;;;;4405711;32;20136;-65
2024/04/15 08:30:44;;;;;;;0.32;0.32;;;12.40;99.90;;;;;;4408319;32;20110;-64
2024/04/15 08:33:09;;;;;;;0.40;0.40;;;12.40;99.90;;;;;;4408122;32;20160;-65
2024/04/15 08:35:37;;;;;;;1.12;0.85;;;12.50;99.90;;;;;;4414086;32;20098;-64
2024/04/15 08:38:02;;;;;;;0.25;0.25;;;12.50;99.90;;;;;;4415048;32;20304;-64
2024/04/15 08:40:29;;;;;;;1.37;0.73;;;12.50;99.90;;;;;;4410038;32;20081;-64
2024/04/15 08:42:56;;;;;;;1.10;0.85;;;12.50;99.90;;;;;;4409553;32;20093;-64
2024/04/15 08:45:23;;;;;;;0.30;0.30;;;12.30;99.90;;;;;;4415315;32;20101;-64
2024/04/15 08:47:52;;;;;;;0.75;0.70;;;12.40;99.90;;;;;;4413531;32;20082;-64
2024/04/15 08:50:20;;;;;;;0.32;0.32;;;12.40;99.90;;;;;;4409561;32;20120;-64
2024/04/15 08:52:49;;;;;;;0.30;0.30;;;12.50;99.90;;;;;;4396862;32;20097;-65
2024/04/15 08:55:15;;;;;;;0.30;0.30;;;12.70;99.90;;;;;;4397233;32;20532;-65
2024/04/15 08:57:42;;;;;;;0.43;0.43;;;13.10;99.90;;;;;;4406632;32;20108;-64
2024/04/15 09:02:36;;;;;;;0.30;0.30;;;13.20;99.90;;;;;;4412774;32;20073;-65
2024/04/15 09:05:03;;;;;;;0.50;0.50;;;13.20;99.90;;;;;;4403587;32;20440;-64
2024/04/15 09:07:28;;;;;;;0.30;0.30;;;13.40;99.90;;;;;;4413632;32;20449;-64
2024/04/15 09:09:54;;;;;;;1.95;0.75;;;13.40;99.90;;;;;;4416128;32;20131;-64
2024/04/15 09:12:20;;;;;;;0.93;0.60;;;13.40;99.90;;;;;;4412288;32;20678;-64
2024/04/15 09:14:45;;;;;;;0.40;0.40;;;13.40;99.90;;;;;;4418045;32;20728;-63
2024/04/15 09:17:11;;;;;;;0.30;0.30;;;13.30;99.90;;;;;;4401357;32;20103;-65
2024/04/15 09:19:41;;;;;;;0.50;0.50;;;13.30;99.90;;;;;;4401758;32;20608;-65
2024/04/15 09:22:07;;;;;;;0.30;0.30;;;13.40;99.90;;;;;;4399339;32;20399;-64
2024/04/15 09:24:33;;;;;;;0.30;0.30;;;13.40;99.90;;;;;;4396889;32;20935;-64
2024/04/15 09:26:59;;;;;;;0.40;0.40;;;13.60;99.90;;;;;;4390261;32;20070;-64
2024/04/15 09:29:25;;;;;;;0.40;0.40;;;13.70;99.90;;;;;;4398427;32;20200;-63
2024/04/15 09:31:51;;;;;;;1.73;0.70;;;13.60;99.90;;;;;;4404209;32;20436;-64
2024/04/15 09:34:16;;;;;;;0.40;0.40;;;13.50;99.90;;;;;;4403277;32;21287;-65
2024/04/15 09:36:42;;;;;;;0.30;0.30;;;13.40;99.90;;;;;;4409088;32;20540;-64
2024/04/15 09:39:08;;;;;;;0.40;0.40;;;13.70;99.90;;;;;;4412365;32;20093;-62
2024/04/15 09:41:34;;;;;;;1.95;0.80;;;14.00;99.90;;;;;;4413859;32;20105;-64
2024/04/15 09:44:00;;;;;;;1.55;0.95;;;14.10;99.90;;;;;;4400412;32;20093;-64
2024/04/15 09:46:31;;;;;;;0.20;0.20;;;14.20;99.90;;;;;;4410514;32;20164;-64
2024/04/15 09:48:57;;;;;;;0.50;0.50;;;14.40;99.90;;;;;;4393593;32;20517;-65
2024/04/15 09:51:24;;;;;;;1.45;1.08;;;14.20;99.90;;;;;;4397776;32;21001;-64
2024/04/15 09:53:51;;;;;;;0.40;0.40;;;14.30;99.90;;;;;;4382094;32;20089;-64
2024/04/15 09:56:27;;;;;;;0.85;0.73;;;14.50;99.90;;;;;;4412971;32;21430;-64
2024/04/15 09:58:56;;;;;;;0.65;0.65;;;14.80;99.90;;;;;;4385767;32;20259;-64
2024/04/15 10:01:25;;;;;;;0.88;0.80;;;14.80;99.90;;;;;;4407958;32;20089;-64
2024/04/15 10:03:52;;;;;;;0.30;0.30;;;14.70;99.90;;;;;;4384118;32;20090;-65
2024/04/15 10:06:42;;;;;;;0.40;0.40;;;14.70;99.90;;;;;;4391351;32;20121;-65
2024/04/15 10:09:10;;;;;;;0.30;0.30;;;14.60;99.90;;;;;;4387170;32;20620;-65
2024/04/15 10:11:36;;;;;;;0.45;0.45;;;14.80;99.90;;;;;;4409014;32;20097;-64
2024/04/15 10:14:03;;;;;;;0.30;0.30;;;14.90;99.90;;;;;;4405666;32;21529;-64
2024/04/15 10:16:33;;;;;;;0.30;0.30;;;15.00;99.90;;;;;;4401762;32;20867;-65
2024/04/15 10:18:59;;;;;;;0.30;0.30;;;15.00;99.90;;;;;;4404533;32;20069;-64
2024/04/15 10:21:25;;;;;;;1.30;0.45;;;15.60;99.90;;;;;;4403730;32;20113;-63
2024/04/15 10:23:51;;;;;;;0.30;0.30;;;16.00;99.90;;;;;;4392736;32;20092;-63
2024/04/15 10:26:19;;;;;;;0.45;0.45;;;15.70;99.90;;;;;;4419555;32;20081;-64
2024/04/15 10:28:44;;;;;;;0.30;0.30;;;15.30;99.90;;;;;;4419807;32;20128;-62
2024/04/15 10:31:14;;;;;;;0.40;0.35;;;15.00;99.90;;;;;;4425225;32;20429;-65
2024/04/15 10:33:55;;;;;;;1.35;0.40;;;14.70;99.90;;;;;;4418693;32;20682;-65
2024/04/15 10:36:29;;;;;;;0.40;0.40;;;14.60;99.90;;;;;;4421413;32;21518;-65
2024/04/15 10:38:54;;;;;;;2.55;0.75;;;14.50;99.90;;;;;;4407680;32;20085;-65
2024/04/15 10:41:21;;;;;;;0.88;0.47;;;14.60;99.90;;;;;;4420070;32;20085;-66
2024/04/15 10:43:48;;;;;;;22.42;1.33;;;14.70;99.90;;;;;;4403606;32;20158;-65
2024/04/15 10:46:17;;;;;;;7.32;0.40;;;15.00;99.90;;;;;;4401154;32;20085;-65
2024/04/15 10:48:43;;;;;;;0.45;0.45;;;14.70;99.90;;;;;;4420193;32;20781;-64
2024/04/15 10:51:09;;;;;;;0.40;0.40;;;14.60;99.90;;;;;;4419506;32;20125;-63
2024/04/15 10:53:35;;;;;;;0.30;0.30;;;14.60;99.90;;;;;;4399602;32;20520;-64
2024/04/15 10:56:01;;;;;;;0.50;0.50;;;14.50;99.90;;;;;;4395917;32;20109;-64
2024/04/15 10:58:26;;;;;;;0.30;0.30;;;14.40;99.90;;;;;;4402230;32;20132;-65
2024/04/15 11:00:52;;;;;;;0.50;0.50;;;14.20;99.90;;;;;;4418049;32;20101;-64
2024/04/15 11:03:18;;;;;;;0.30;0.30;;;14.30;99.90;;;;;;4420048;32;20099;-64
2024/04/15 11:05:44;;;;;;;0.30;0.30;;;14.30;99.90;;;;;;4406016;32;20142;-63
2024/04/15 11:08:09;;;;;;;0.40;0.40;;;14.20;99.90;;;;;;4403905;32;20081;-63
2024/04/15 11:10:37;;;;;;;0.30;0.30;;;14.20;99.90;;;;;;4407786;32;20062;-63
2024/04/15 11:13:04;;;;;;;0.30;0.30;;;14.20;99.90;;;;;;4416435;32;20102;-63
2024/04/15 11:15:29;;;;;;;0.37;0.37;;;13.90;99.90;;;;;;4410771;32;20555;-63
2024/04/15 11:17:56;;;;;;;0.40;0.40;;;13.70;99.90;;;;;;4410319;32;20105;-63
2024/04/15 11:20:23;;;;;;;0.50;0.50;;;13.80;99.90;;;;;;4402170;32;20694;-65
2024/04/15 11:22:49;;;;;;;0.40;0.40;;;13.40;99.90;;;;;;4402461;32;20088;-64
2024/04/15 11:25:16;;;;;;;0.40;0.40;;;13.30;99.90;;;;;;4418910;32;20470;-64
2024/04/15 11:27:46;;;;;;;0.32;0.32;;;13.30;99.90;;;;;;4403192;32;20166;-63
2024/04/15 11:30:18;;;;;;;0.40;0.40;;;13.10;99.90;;;;;;4414751;32;20769;-64
2024/04/15 11:32:43;;;;;;;0.52;0.52;;;13.10;99.90;;;;;;4401365;32;20081;-64
2024/04/15 11:35:10;;;;;;;0.40;0.40;;;13.30;99.90;;;;;;4418931;32;20088;-64
2024/04/15 11:37:36;;;;;;;0.20;0.20;;;13.30;99.90;;;;;;4421221;32;20152;-65
2024/04/15 11:40:02;;;;;;;0.22;0.22;;;13.00;99.90;;;;;;4413892;32;20081;-65
2024/04/15 11:42:28;;;;;;;0.40;0.40;;;13.20;99.90;;;;;;4409788;32;20187;-65
2024/04/15 11:44:55;;;;;;;0.40;0.40;;;13.40;99.90;;;;;;4410910;32;20654;-64
2024/04/15 11:47:21;;;;;;;0.30;0.30;;;13.60;99.90;;;;;;4415335;32;20166;-65
2024/04/15 11:49:47;;;;;;;0.50;0.50;;;13.70;99.90;;;;;;4411777;32;20093;-65
2024/04/15 11:52:14;;;;;;;0.40;0.40;;;14.00;99.90;;;;;;4414077;32;20793;-64
2024/04/15 11:54:40;;;;;;;1.17;0.90;;;14.40;99.90;;;;;;4414131;32;125199;-63
2024/04/15 11:57:08;;;;;;;0.40;0.40;;;15.00;99.90;;;;;;4418019;32;20078;-64
2024/04/15 11:59:34;;;;;;;0.52;0.47;;;15.80;99.90;;;;;;4394067;32;20443;-64
2024/04/15 12:02:00;;;;;;;0.35;0.35;;;16.30;99.90;;;;;;4405979;32;20662;-64
2024/04/15 12:04:25;;;;;;;3.00;1.65;;;16.70;99.90;;;;;;4389336;32;21067;-64
2024/04/15 12:06:52;;;;;;;0.30;0.30;;;16.40;99.90;;;;;;4412109;32;20185;-64
2024/04/15 12:09:19;;;;;;;0.43;0.43;;;15.50;99.90;;;;;;4409588;32;20663;-64
2024/04/15 12:11:45;;;;;;;0.40;0.40;;;15.30;99.90;;;;;;4398837;32;20081;-64
2024/04/15 12:14:12;;;;;;;0.50;0.50;;;15.20;99.90;;;;;;4403928;32;20592;-64
2024/04/15 12:16:37;;;;;;;2.08;0.57;;;15.10;99.90;;;;;;4405252;32;20114;-64
2024/04/15 12:19:03;;;;;;;0.50;0.50;;;15.40;99.90;;;;;;4415468;32;20077;-65
2024/04/15 12:21:29;;;;;;;1.42;0.62;;;15.40;99.90;;;;;;4411849;32;20923;-64
2024/04/15 12:23:55;;;;;;;0.30;0.30;;;15.30;99.90;;;;;;4417815;32;20061;-63
2024/04/15 12:26:23;;;;;;;0.75;0.75;;;15.30;99.90;;;;;;4414469;32;20076;-64
2024/04/15 12:28:49;;;;;;;0.55;0.55;;;15.10;99.90;;;;;;4414691;32;20093;-64
2024/04/15 12:31:14;;;;;;;0.30;0.30;;;15.00;99.90;;;;;;4404029;32;20426;-64
2024/04/15 12:33:40;;;;;;;7.78;0.98;;;14.90;99.90;;;;;;4417449;32;20206;-64
2024/04/15 12:36:08;;;;;;;0.25;0.25;;;14.70;99.90;;;;;;4422347;32;20073;-64
2024/04/15 12:38:34;;;;;;;0.40;0.40;;;14.70;99.90;;;;;;4412918;32;20136;-64
2024/04/15 12:40:59;;;;;;;0.50;0.50;;;14.90;99.90;;;;;;4406323;32;20073;-64
2024/04/15 12:43:25;;;;;;;0.50;0.50;;;14.80;99.90;;;;;;4425755;32;20178;-64
2024/04/15 12:45:50;;;;;;;0.90;0.57;;;14.70;99.90;;;;;;4407064;32;20876;-64